Time;durP1;ratioP1;P1;durP2;ratioP2;P2;SDS_P1;SDS_P2;PMS_P1;PMS_P2;Temp;Humidity;BMP_temperature;BMP_pressure;BME280_temperature;BME280_humidity;BME280_pressure;Samples;Min_cycle;Max_cycle;Signal;HPM_P1;HPM_P2
2023/02/02 00:02:01;0.00;0.00;0.62;0.00;0.00;0.62;1.80;0.90;;;21.90;25.00;;;;;;2260072;61;20362;-63
2023/02/02 00:04:46;0.00;0.00;0.62;0.00;0.00;0.62;2.97;1.50;;;21.90;25.00;;;;;;2260560;61;20893;-63
2023/02/02 00:07:30;0.00;0.00;0.62;0.00;0.00;0.62;1.87;1.10;;;21.90;25.00;;;;;;2260492;61;20457;-61
2023/02/02 00:10:16;0.00;0.00;0.62;0.00;0.00;0.62;2.53;1.17;;;21.90;25.00;;;;;;2260346;61;20953;-59
2023/02/02 00:13:00;0.00;0.00;0.62;0.00;0.00;0.62;2.20;1.20;;;21.90;25.00;;;;;;2260523;61;20408;-57
2023/02/02 00:15:45;0.00;0.00;0.62;0.00;0.00;0.62;2.30;1.10;;;21.90;25.50;;;;;;2260216;61;20432;-59
2023/02/02 00:18:34;0.00;0.00;0.62;0.00;0.00;0.62;1.60;0.83;;;21.90;25.10;;;;;;2260104;61;20990;-58
2023/02/02 00:21:19;0.00;0.00;0.62;0.00;0.00;0.62;1.40;0.83;;;21.90;25.60;;;;;;2260091;61;20870;-59
2023/02/02 00:24:05;0.00;0.00;0.62;0.00;0.00;0.62;1.70;0.83;;;21.90;25.10;;;;;;2260564;61;20396;-59
2023/02/02 00:26:53;0.00;0.00;0.62;0.00;0.00;0.62;5.20;1.60;;;21.90;25.10;;;;;;2260068;61;20369;-57
2023/02/02 00:29:38;0.00;0.00;0.62;0.00;0.00;0.62;1.80;1.00;;;21.90;25.20;;;;;;2260853;61;20381;-63
2023/02/02 00:32:23;0.00;0.00;0.62;0.00;0.00;0.62;2.87;1.00;;;21.90;25.20;;;;;;2257406;61;20365;-61
2023/02/02 00:35:09;0.00;0.00;0.62;0.00;0.00;0.62;2.77;1.10;;;21.90;25.20;;;;;;2260947;61;20437;-57
2023/02/02 00:37:54;0.00;0.00;0.62;0.00;0.00;0.62;2.13;1.07;;;21.90;25.80;;;;;;2256951;61;20404;-61
2023/02/02 00:40:41;0.00;0.00;0.62;0.00;0.00;0.62;1.50;0.80;;;21.90;25.30;;;;;;2257318;61;20380;-60
2023/02/02 00:43:28;0.00;0.00;0.62;0.00;0.00;0.62;1.60;0.80;;;21.90;25.20;;;;;;2256474;61;20897;-62
2023/02/02 00:46:17;0.00;0.00;0.62;0.00;0.00;0.62;4.00;1.30;;;21.90;25.30;;;;;;2259551;61;20360;-62
2023/02/02 00:49:02;0.00;0.00;0.62;0.00;0.00;0.62;3.57;1.53;;;21.90;25.20;;;;;;2260470;61;20472;-56
2023/02/02 00:51:48;0.00;0.00;0.62;0.00;0.00;0.62;4.53;1.63;;;21.90;24.90;;;;;;2256697;61;20369;-61
2023/02/02 00:54:32;0.00;0.00;0.62;0.00;0.00;0.62;5.60;1.93;;;21.80;24.40;;;;;;2259979;61;20594;-63
2023/02/02 00:57:17;0.00;0.00;0.62;0.00;0.00;0.62;5.20;1.97;;;21.80;24.10;;;;;;2259543;61;20384;-62
2023/02/02 01:00:03;0.00;0.00;0.62;0.00;0.00;0.62;3.30;1.93;;;21.60;23.80;;;;;;2491503;53;20465;-59
2023/02/02 01:02:48;0.00;0.00;0.62;0.00;0.00;0.62;5.50;2.40;;;21.60;23.70;;;;;;2256610;61;20366;-60
2023/02/02 01:05:33;0.00;0.00;0.62;0.00;0.00;0.62;4.57;1.77;;;21.50;23.40;;;;;;2252886;61;20433;-64
2023/02/02 01:08:20;0.00;0.00;0.62;0.00;0.00;0.62;5.13;2.00;;;21.40;23.30;;;;;;2255951;61;20365;-63
2023/02/02 01:11:04;0.00;0.00;0.62;0.00;0.00;0.62;4.00;2.00;;;21.30;23.30;;;;;;2256276;61;20939;-63
2023/02/02 01:13:50;0.00;0.00;0.62;0.00;0.00;0.62;5.87;1.97;;;21.30;23.30;;;;;;2255808;61;20366;-62
2023/02/02 01:16:35;0.00;0.00;0.62;0.00;0.00;0.62;6.83;2.10;;;21.20;23.30;;;;;;2255620;61;20366;-63
2023/02/02 01:19:19;0.00;0.00;0.62;0.00;0.00;0.62;6.77;2.30;;;21.10;23.20;;;;;;2256171;61;20413;-62
2023/02/02 01:22:04;0.00;0.00;0.62;0.00;0.00;0.62;8.30;2.43;;;21.00;23.10;;;;;;2255989;61;20777;-61
2023/02/02 01:24:50;0.00;0.00;0.62;0.00;0.00;0.62;7.30;3.23;;;21.00;23.00;;;;;;2253183;61;20365;-64
2023/02/02 01:27:35;0.00;0.00;0.62;0.00;0.00;0.62;10.83;2.70;;;20.80;22.80;;;;;;2256731;61;20397;-66
2023/02/02 01:30:22;0.00;0.00;0.62;0.00;0.00;0.62;8.07;2.10;;;20.80;22.90;;;;;;2253485;61;20381;-64
2023/02/02 01:33:07;0.00;0.00;0.62;0.00;0.00;0.62;6.77;2.27;;;20.70;22.90;;;;;;2257183;61;20357;-63
2023/02/02 01:35:55;0.00;0.00;0.62;0.00;0.00;0.62;6.63;2.47;;;20.60;22.90;;;;;;2256273;61;20397;-60
2023/02/02 01:38:41;0.00;0.00;0.62;0.00;0.00;0.62;6.27;2.00;;;20.50;22.80;;;;;;2253266;61;20490;-64
2023/02/02 01:41:28;0.00;0.00;0.62;0.00;0.00;0.62;4.50;1.90;;;20.50;23.40;;;;;;2253730;61;20574;-63
2023/02/02 01:45:02;0.00;0.00;0.62;0.00;0.00;0.62;7.47;2.37;;;20.40;22.80;;;;;;2256627;61;20806;-62
2023/02/02 01:47:53;0.00;0.00;0.62;0.00;0.00;0.62;6.87;2.40;;;20.30;22.80;;;;;;2257098;61;20365;-60
2023/02/02 01:50:38;0.00;0.00;0.62;0.00;0.00;0.62;5.07;1.90;;;20.20;22.80;;;;;;2255771;61;20454;-61
2023/02/02 01:53:23;0.00;0.00;0.62;0.00;0.00;0.62;4.80;2.00;;;20.20;22.90;;;;;;2256446;61;20365;-60
2023/02/02 01:56:11;0.00;0.00;0.62;0.00;0.00;0.62;7.10;2.37;;;20.10;22.90;;;;;;2256287;61;20416;-57
2023/02/02 01:58:58;0.00;0.00;0.62;0.00;0.00;0.62;6.27;2.00;;;20.00;22.90;;;;;;2255971;61;20437;-57
2023/02/02 02:01:45;0.00;0.00;0.62;0.00;0.00;0.62;6.27;2.37;;;20.00;22.90;;;;;;2256564;61;20366;-61
2023/02/02 02:04:31;0.00;0.00;0.62;0.00;0.00;0.62;8.70;2.60;;;20.00;22.90;;;;;;2256203;61;20413;-55
2023/02/02 02:07:16;0.00;0.00;0.62;0.00;0.00;0.62;6.73;2.20;;;19.90;22.90;;;;;;2253032;61;20362;-56
2023/02/02 02:10:01;0.00;0.00;0.62;0.00;0.00;0.62;9.00;2.87;;;19.80;22.80;;;;;;2256882;61;20385;-61
2023/02/02 02:12:47;0.00;0.00;0.62;0.00;0.00;0.62;8.43;2.50;;;19.70;22.80;;;;;;2255786;61;20953;-57
2023/02/02 02:18:57;0.00;0.00;0.62;0.00;0.00;0.62;4.93;2.13;;;19.60;22.80;;;;;;2256551;61;20949;-59
2023/02/02 02:29:10;0.00;0.00;0.62;0.00;0.00;0.62;9.83;2.33;;;19.40;22.90;;;;;;2256684;61;20366;-60
2023/02/02 02:32:17;0.00;0.00;0.62;0.00;0.00;0.62;6.97;2.07;;;19.30;23.00;;;;;;2253958;61;20857;-60
2023/02/02 02:35:10;0.00;0.00;0.62;0.00;0.00;0.62;4.23;2.00;;;19.30;23.00;;;;;;2253235;61;20428;-60
2023/02/02 02:38:03;0.00;0.00;0.62;0.00;0.00;0.62;9.33;2.80;;;19.20;23.10;;;;;;2256403;61;20405;-58
2023/02/02 02:40:54;0.00;0.00;0.62;0.00;0.00;0.62;10.30;2.80;;;19.20;23.80;;;;;;2257332;61;20386;-61
2023/02/02 02:43:44;0.00;0.00;0.62;0.00;0.00;0.62;5.20;2.70;;;19.10;23.20;;;;;;2256601;61;20416;-62
2023/02/02 02:46:29;0.00;0.00;0.62;0.00;0.00;0.62;6.10;2.87;;;19.10;23.20;;;;;;2257374;61;20373;-57
2023/02/02 02:49:16;0.00;0.00;0.62;0.00;0.00;0.62;9.47;2.87;;;19.10;23.30;;;;;;2251028;61;20377;-58
2023/02/02 02:52:01;0.00;0.00;0.62;0.00;0.00;0.62;9.60;3.00;;;19.00;23.30;;;;;;2256811;61;20405;-61
2023/02/02 02:54:54;0.00;0.00;0.62;0.00;0.00;0.62;7.37;2.83;;;19.00;23.40;;;;;;2254046;61;20354;-59
2023/02/02 02:58:06;0.00;0.00;0.62;0.00;0.00;0.62;4.47;2.50;;;19.00;23.40;;;;;;2256371;61;20365;-58
2023/02/02 03:01:03;0.00;0.00;0.62;0.00;0.00;0.62;6.63;2.20;;;18.90;23.40;;;;;;2254149;61;20386;-61
2023/02/02 03:04:01;0.00;0.00;0.62;0.00;0.00;0.62;6.07;2.30;;;18.90;23.40;;;;;;2257198;61;20460;-62
2023/02/02 03:06:53;0.00;0.00;0.62;0.00;0.00;0.62;5.20;2.50;;;18.80;23.40;;;;;;2256980;61;20362;-59
2023/02/02 03:09:43;0.00;0.00;0.62;0.00;0.00;0.62;6.30;2.50;;;18.80;23.50;;;;;;2254692;61;20382;-61
2023/02/02 03:12:28;0.00;0.00;0.62;0.00;0.00;0.62;5.47;1.73;;;18.80;23.50;;;;;;2258366;61;20400;-65
2023/02/02 03:15:14;0.00;0.00;0.62;0.00;0.00;0.62;6.50;1.97;;;18.70;23.50;;;;;;2258478;61;20381;-61
2023/02/02 03:17:59;0.00;0.00;0.62;0.00;0.00;0.62;8.00;2.70;;;18.70;23.50;;;;;;2257927;61;20366;-63
2023/02/02 03:20:46;0.00;0.00;0.62;0.00;0.00;0.62;4.13;2.17;;;18.70;23.50;;;;;;2257921;61;20460;-61
2023/02/02 03:23:34;0.00;0.00;0.62;0.00;0.00;0.62;3.93;2.47;;;18.70;23.60;;;;;;2257874;61;20374;-63
2023/02/02 03:26:19;0.00;0.00;0.62;0.00;0.00;0.62;6.00;2.27;;;18.60;23.70;;;;;;2257269;61;20525;-65
2023/02/02 03:29:03;0.00;0.00;0.62;0.00;0.00;0.62;5.23;2.17;;;18.60;23.70;;;;;;2257828;61;20354;-59
2023/02/02 03:31:49;0.00;0.00;0.62;0.00;0.00;0.62;5.70;2.23;;;18.60;23.70;;;;;;2258135;61;20365;-56
2023/02/02 03:34:33;0.00;0.00;0.62;0.00;0.00;0.62;5.93;2.90;;;18.60;23.80;;;;;;2253784;61;20362;-61
2023/02/02 03:37:18;0.00;0.00;0.62;0.00;0.00;0.62;6.70;2.67;;;18.60;23.80;;;;;;2257069;61;20370;-61
2023/02/02 03:40:05;0.00;0.00;0.62;0.00;0.00;0.62;6.40;2.07;;;18.60;24.30;;;;;;2253912;61;20397;-60
2023/02/02 03:42:50;0.00;0.00;0.62;0.00;0.00;0.62;4.73;1.90;;;18.50;23.70;;;;;;2257043;61;20374;-62
2023/02/02 03:45:36;0.00;0.00;0.62;0.00;0.00;0.62;7.80;2.40;;;18.50;23.70;;;;;;2253956;61;20366;-55
2023/02/02 03:48:20;0.00;0.00;0.62;0.00;0.00;0.62;6.00;2.43;;;18.50;23.70;;;;;;2256686;61;20362;-62
2023/02/02 03:51:06;0.00;0.00;0.62;0.00;0.00;0.62;6.67;2.13;;;18.40;23.70;;;;;;2256906;61;20433;-58
2023/02/02 03:53:51;0.00;0.00;0.62;0.00;0.00;0.62;5.83;2.40;;;18.40;23.70;;;;;;2257352;61;20386;-59
2023/02/02 03:56:37;0.00;0.00;0.62;0.00;0.00;0.62;9.27;2.87;;;18.40;23.70;;;;;;2256418;61;20358;-61
2023/02/02 03:59:22;0.00;0.00;0.62;0.00;0.00;0.62;7.83;2.40;;;18.30;23.70;;;;;;2253588;61;20909;-59
2023/02/02 04:02:07;0.00;0.00;0.62;0.00;0.00;0.62;6.73;2.10;;;18.30;23.70;;;;;;2257226;61;20757;-57
2023/02/02 04:04:51;0.00;0.00;0.62;0.00;0.00;0.62;9.40;2.90;;;18.30;23.80;;;;;;2256999;61;20380;-62
2023/02/02 04:07:36;0.00;0.00;0.62;0.00;0.00;0.62;5.00;2.43;;;18.20;23.80;;;;;;2253647;61;20361;-58
2023/02/02 04:10:21;0.00;0.00;0.62;0.00;0.00;0.62;3.77;2.03;;;18.20;23.90;;;;;;2257131;61;20377;-57
2023/02/02 04:13:08;0.00;0.00;0.62;0.00;0.00;0.62;8.20;2.83;;;18.20;24.00;;;;;;2257221;61;20362;-61
2023/02/02 04:15:58;0.00;0.00;0.62;0.00;0.00;0.62;11.07;3.23;;;18.10;23.90;;;;;;2257316;61;20501;-57
2023/02/02 04:18:43;0.00;0.00;0.62;0.00;0.00;0.62;7.27;2.70;;;18.10;24.00;;;;;;2256774;61;20844;-58
2023/02/02 04:21:27;0.00;0.00;0.62;0.00;0.00;0.62;6.80;2.40;;;18.20;24.10;;;;;;2257005;61;20439;-60
2023/02/02 04:24:14;0.00;0.00;0.62;0.00;0.00;0.62;7.60;2.70;;;18.10;24.10;;;;;;2257028;61;20925;-60
2023/02/02 04:26:59;0.00;0.00;0.62;0.00;0.00;0.62;8.50;2.90;;;18.10;24.10;;;;;;2256852;61;20393;-59
2023/02/02 04:29:45;0.00;0.00;0.62;0.00;0.00;0.62;7.77;2.50;;;18.10;24.20;;;;;;2253951;61;20921;-59
2023/02/02 04:32:29;0.00;0.00;0.62;0.00;0.00;0.62;5.50;2.13;;;18.00;24.20;;;;;;2257664;61;20420;-61
2023/02/02 04:35:14;0.00;0.00;0.62;0.00;0.00;0.62;6.30;2.43;;;18.00;24.20;;;;;;2253865;61;20429;-57
2023/02/02 04:37:59;0.00;0.00;0.62;0.00;0.00;0.62;8.80;2.87;;;18.00;24.30;;;;;;2253629;61;20374;-60
2023/02/02 04:40:46;0.00;0.00;0.62;0.00;0.00;0.62;9.83;2.40;;;18.00;24.40;;;;;;2253364;61;20390;-59
2023/02/02 04:43:33;0.00;0.00;0.62;0.00;0.00;0.62;7.53;2.17;;;17.90;24.30;;;;;;2257021;61;20420;-59
2023/02/02 04:46:19;0.00;0.00;0.62;0.00;0.00;0.62;4.50;1.93;;;17.90;24.40;;;;;;2256674;61;20769;-60
2023/02/02 04:49:04;0.00;0.00;0.62;0.00;0.00;0.62;10.87;2.90;;;17.90;24.40;;;;;;2256907;61;20358;-59
2023/02/02 04:51:49;0.00;0.00;0.62;0.00;0.00;0.62;6.80;2.43;;;17.90;24.50;;;;;;2256814;61;20382;-59
2023/02/02 04:54:34;0.00;0.00;0.62;0.00;0.00;0.62;16.37;3.47;;;17.90;24.50;;;;;;2257301;61;20398;-55
2023/02/02 04:57:19;0.00;0.00;0.62;0.00;0.00;0.62;8.50;3.10;;;17.80;25.00;;;;;;2256419;61;20411;-62
2023/02/02 05:00:05;0.00;0.00;0.62;0.00;0.00;0.62;7.67;2.50;;;17.80;24.60;;;;;;2257428;61;20393;-60
2023/02/02 05:02:51;0.00;0.00;0.62;0.00;0.00;0.62;5.93;2.00;;;17.80;24.60;;;;;;2256839;61;20869;-61
2023/02/02 05:05:36;0.00;0.00;0.62;0.00;0.00;0.62;7.23;2.70;;;17.80;24.70;;;;;;2254077;61;20465;-64
2023/02/02 05:08:21;0.00;0.00;0.62;0.00;0.00;0.62;5.37;2.00;;;17.80;24.70;;;;;;2257100;61;20354;-63
2023/02/02 05:11:07;0.00;0.00;0.62;0.00;0.00;0.62;8.87;2.40;;;17.80;24.80;;;;;;2256845;61;20516;-57
2023/02/02 05:13:53;0.00;0.00;0.62;0.00;0.00;0.62;5.07;2.40;;;17.70;24.70;;;;;;2256970;61;20358;-58
2023/02/02 05:16:38;0.00;0.00;0.62;0.00;0.00;0.62;9.20;2.50;;;17.70;24.80;;;;;;2256630;61;20777;-58
2023/02/02 05:19:27;0.00;0.00;0.62;0.00;0.00;0.62;7.67;2.93;;;17.70;24.90;;;;;;2256988;61;21076;-57
2023/02/02 05:22:12;0.00;0.00;0.62;0.00;0.00;0.62;10.67;3.07;;;17.70;25.00;;;;;;2257500;61;20370;-57
2023/02/02 05:24:57;0.00;0.00;0.62;0.00;0.00;0.62;5.53;2.50;;;17.70;25.00;;;;;;2256418;61;20878;-62
2023/02/02 05:27:42;0.00;0.00;0.62;0.00;0.00;0.62;9.63;1.93;;;17.70;25.00;;;;;;2256900;61;20455;-62
2023/02/02 05:30:28;0.00;0.00;0.62;0.00;0.00;0.62;8.63;2.27;;;17.70;25.00;;;;;;2257309;61;20965;-60
2023/02/02 05:33:13;0.00;0.00;0.62;0.00;0.00;0.62;6.40;2.63;;;17.70;25.00;;;;;;2256670;61;20381;-59
2023/02/02 05:35:59;0.00;0.00;0.62;0.00;0.00;0.62;5.70;1.93;;;17.70;25.00;;;;;;2257105;61;20432;-65
2023/02/02 05:38:44;0.00;0.00;0.62;0.00;0.00;0.62;9.10;3.30;;;17.70;25.00;;;;;;2256992;61;20789;-59
2023/02/02 05:41:28;0.00;0.00;0.62;0.00;0.00;0.62;10.47;2.83;;;17.70;25.00;;;;;;2257310;61;20445;-63
2023/02/02 05:44:15;0.00;0.00;0.62;0.00;0.00;0.62;7.63;2.57;;;17.60;24.90;;;;;;2257114;61;20373;-59
2023/02/02 05:47:00;0.00;0.00;0.62;0.00;0.00;0.62;6.27;2.53;;;17.60;24.90;;;;;;2256392;61;20402;-59
2023/02/02 05:49:45;0.00;0.00;0.62;0.00;0.00;0.62;7.20;2.90;;;17.60;24.90;;;;;;2257141;61;20473;-60
2023/02/02 05:52:34;0.00;0.00;0.62;0.00;0.00;0.62;5.60;2.00;;;17.60;24.90;;;;;;2257137;61;20401;-56
2023/02/02 05:55:19;0.00;0.00;0.62;0.00;0.00;0.62;5.90;2.20;;;17.60;24.90;;;;;;2256699;61;20416;-59
2023/02/02 05:58:04;0.00;0.00;0.62;0.00;0.00;0.62;6.80;2.93;;;17.60;24.90;;;;;;2256850;61;20366;-61
2023/02/02 06:00:49;0.00;0.00;0.62;0.00;0.00;0.62;10.40;3.60;;;17.60;24.90;;;;;;2257445;61;20389;-57
2023/02/02 06:03:33;0.00;0.00;0.62;0.00;0.00;0.62;8.60;2.30;;;17.60;24.90;;;;;;2257433;61;20370;-61
2023/02/02 06:06:18;0.00;0.00;0.62;0.00;0.00;0.62;6.80;2.37;;;17.60;24.90;;;;;;2257343;61;20446;-58
2023/02/02 06:09:05;0.00;0.00;0.62;0.00;0.00;0.62;6.17;2.20;;;17.60;24.90;;;;;;2254216;61;20362;-59
2023/02/02 06:11:50;0.00;0.00;0.62;0.00;0.00;0.62;5.73;2.10;;;17.60;25.00;;;;;;2257418;61;20499;-59
2023/02/02 06:14:34;0.00;0.00;0.62;0.00;0.00;0.62;6.07;2.43;;;17.60;25.00;;;;;;2254326;61;20393;-61
2023/02/02 06:17:19;0.00;0.00;0.62;0.00;0.00;0.62;7.97;2.50;;;17.60;25.60;;;;;;2257176;61;20493;-59
2023/02/02 06:20:05;0.00;0.00;0.62;0.00;0.00;0.62;6.47;2.40;;;17.60;25.10;;;;;;2257278;61;20413;-59
2023/02/02 06:22:50;0.00;0.00;0.62;0.00;0.00;0.62;7.37;2.80;;;17.60;25.20;;;;;;2257762;61;20785;-57
2023/02/02 06:25:37;0.00;0.00;0.62;0.00;0.00;0.62;8.93;2.17;;;17.60;25.10;;;;;;2257750;61;20385;-61
2023/02/02 06:28:22;0.00;0.00;0.62;0.00;0.00;0.62;10.27;3.20;;;17.60;25.10;;;;;;2253903;61;20365;-61
2023/02/02 06:31:10;0.00;0.00;0.62;0.00;0.00;0.62;8.80;2.97;;;17.60;25.10;;;;;;2257472;61;20949;-60
2023/02/02 06:33:57;0.00;0.00;0.62;0.00;0.00;0.62;6.20;2.30;;;17.60;25.00;;;;;;2257171;61;20914;-62
2023/02/02 06:36:42;0.00;0.00;0.62;0.00;0.00;0.62;6.20;1.83;;;17.60;25.10;;;;;;2254225;61;20920;-61
2023/02/02 06:39:27;0.00;0.00;0.62;0.00;0.00;0.62;6.27;2.17;;;17.60;25.20;;;;;;2256977;61;20436;-57
2023/02/02 06:42:13;0.00;0.00;0.62;0.00;0.00;0.62;6.13;2.00;;;17.60;25.20;;;;;;2257004;61;20370;-57
2023/02/02 06:44:58;0.00;0.00;0.62;0.00;0.00;0.62;7.03;2.73;;;17.60;25.20;;;;;;2257485;61;20782;-54
2023/02/02 06:47:43;0.00;0.00;0.62;0.00;0.00;0.62;4.63;2.20;;;17.60;25.20;;;;;;2256858;61;20396;-60
2023/02/02 06:50:27;0.00;0.00;0.62;0.00;0.00;0.62;6.03;2.13;;;17.60;25.10;;;;;;2254228;61;20377;-61
2023/02/02 06:53:12;0.00;0.00;0.62;0.00;0.00;0.62;9.43;2.50;;;17.60;25.10;;;;;;2257465;61;20878;-59
2023/02/02 06:56:00;0.00;0.00;0.62;0.00;0.00;0.62;5.80;1.87;;;17.60;25.20;;;;;;2257336;61;20365;-58
2023/02/02 06:58:46;0.00;0.00;0.62;0.00;0.00;0.62;7.10;2.40;;;17.60;25.20;;;;;;2256984;61;20394;-58
2023/02/02 07:01:31;0.00;0.00;0.62;0.00;0.00;0.62;5.23;2.27;;;17.60;25.20;;;;;;2256982;61;20366;-56
2023/02/02 07:04:16;0.00;0.00;0.62;0.00;0.00;0.62;6.33;3.40;;;17.70;25.30;;;;;;2253940;61;20358;-57
2023/02/02 07:07:01;0.00;0.00;0.62;0.00;0.00;0.62;7.60;2.20;;;17.60;25.30;;;;;;2256934;61;20905;-61
2023/02/02 07:09:49;0.00;0.00;0.62;0.00;0.00;0.62;5.10;1.70;;;17.60;25.30;;;;;;2256831;61;20378;-58
2023/02/02 07:12:33;0.00;0.00;0.62;0.00;0.00;0.62;8.37;2.57;;;17.60;25.40;;;;;;2257153;61;20369;-60
2023/02/02 07:15:19;0.00;0.00;0.62;0.00;0.00;0.62;4.33;2.43;;;17.60;25.40;;;;;;2256718;61;20897;-59
2023/02/02 07:18:04;0.00;0.00;0.62;0.00;0.00;0.62;9.83;2.67;;;17.60;25.40;;;;;;2277705;58;20415;-59
2023/02/02 07:20:49;0.00;0.00;0.62;0.00;0.00;0.62;9.10;3.00;;;17.60;25.40;;;;;;2260231;61;20478;-59
2023/02/02 07:23:34;0.00;0.00;0.62;0.00;0.00;0.62;8.40;2.20;;;17.60;25.40;;;;;;2260654;61;20885;-58
2023/02/02 07:26:19;0.00;0.00;0.62;0.00;0.00;0.62;9.43;2.57;;;17.60;25.40;;;;;;2257364;61;20408;-62
2023/02/02 07:29:04;0.00;0.00;0.62;0.00;0.00;0.62;7.30;2.17;;;17.60;25.50;;;;;;2260758;61;21015;-56
2023/02/02 07:31:51;0.00;0.00;0.62;0.00;0.00;0.62;7.00;2.80;;;17.60;25.50;;;;;;2260903;61;20373;-58
2023/02/02 07:34:37;0.00;0.00;0.62;0.00;0.00;0.62;4.17;2.07;;;17.70;25.50;;;;;;2260949;61;20392;-59
2023/02/02 07:37:22;0.00;0.00;0.62;0.00;0.00;0.62;5.20;1.30;;;17.70;25.60;;;;;;2260810;61;20365;-57
2023/02/02 07:40:09;0.00;0.00;0.62;0.00;0.00;0.62;6.60;2.20;;;17.70;26.10;;;;;;2261129;61;20435;-59
2023/02/02 07:42:54;0.00;0.00;0.62;0.00;0.00;0.62;7.03;2.23;;;17.70;25.70;;;;;;2258104;61;20450;-61
2023/02/02 07:45:39;0.00;0.00;0.62;0.00;0.00;0.62;5.10;2.20;;;17.70;25.60;;;;;;2261207;61;20361;-59
2023/02/02 07:48:25;0.00;0.00;0.62;0.00;0.00;0.62;3.50;2.20;;;17.70;25.60;;;;;;2260667;61;20372;-58
2023/02/02 07:51:15;0.00;0.00;0.62;0.00;0.00;0.62;4.73;1.80;;;17.70;25.60;;;;;;2261407;61;20465;-54
2023/02/02 07:54:00;0.00;0.00;0.62;0.00;0.00;0.62;8.53;3.10;;;17.80;25.70;;;;;;2258062;61;20361;-60
2023/02/02 07:56:45;0.00;0.00;0.62;0.00;0.00;0.62;5.40;1.80;;;17.80;25.70;;;;;;2260428;61;20376;-61
2023/02/02 07:59:30;0.00;0.00;0.62;0.00;0.00;0.62;8.87;2.37;;;17.80;25.70;;;;;;2261042;61;20416;-56
2023/02/02 08:02:15;0.00;0.00;0.62;0.00;0.00;0.62;6.87;2.27;;;17.80;25.70;;;;;;2257675;61;20360;-59
2023/02/02 08:05:01;0.00;0.00;0.62;0.00;0.00;0.62;3.67;1.80;;;17.80;25.70;;;;;;2260458;61;20882;-58
2023/02/02 08:07:47;0.00;0.00;0.62;0.00;0.00;0.62;8.77;2.70;;;17.80;25.70;;;;;;2259821;61;20411;-58
2023/02/02 08:10:31;0.00;0.00;0.62;0.00;0.00;0.62;7.67;2.30;;;17.80;25.70;;;;;;2256803;61;20835;-60
2023/02/02 08:13:16;0.00;0.00;0.62;0.00;0.00;0.62;6.47;1.93;;;17.80;25.70;;;;;;2260157;61;20439;-59
2023/02/02 08:16:01;0.00;0.00;0.62;0.00;0.00;0.62;6.13;2.33;;;17.80;25.70;;;;;;2260255;61;20361;-61
2023/02/02 08:18:46;0.00;0.00;0.62;0.00;0.00;0.62;6.57;2.23;;;17.80;25.70;;;;;;2259974;61;20365;-60
2023/02/02 08:21:33;0.00;0.00;0.62;0.00;0.00;0.62;6.70;2.30;;;17.80;25.70;;;;;;2259947;61;20435;-58
2023/02/02 08:24:19;0.00;0.00;0.62;0.00;0.00;0.62;5.80;3.20;;;17.80;25.80;;;;;;2260147;61;20342;-61
2023/02/02 08:27:03;0.00;0.00;0.62;0.00;0.00;0.62;5.67;2.30;;;17.80;25.80;;;;;;2259858;61;20403;-58
2023/02/02 08:29:48;0.00;0.00;0.62;0.00;0.00;0.62;4.63;2.03;;;17.80;25.80;;;;;;2260144;61;20381;-62
2023/02/02 08:32:33;0.00;0.00;0.62;0.00;0.00;0.62;7.37;2.40;;;17.80;25.80;;;;;;2259773;61;20341;-59
2023/02/02 08:35:18;0.00;0.00;0.62;0.00;0.00;0.62;5.63;1.80;;;17.80;25.80;;;;;;2260144;61;20895;-60
2023/02/02 08:38:06;0.00;0.00;0.62;0.00;0.00;0.62;5.27;1.83;;;17.90;25.90;;;;;;2259792;61;20365;-62
2023/02/02 08:40:51;0.00;0.00;0.62;0.00;0.00;0.62;5.87;1.73;;;17.90;25.90;;;;;;2259523;61;20442;-60
2023/02/02 08:43:37;0.00;0.00;0.62;0.00;0.00;0.62;4.17;1.50;;;17.90;25.90;;;;;;2259712;61;20364;-60
2023/02/02 08:46:22;0.00;0.00;0.62;0.00;0.00;0.62;2.97;1.27;;;18.00;26.00;;;;;;2259879;61;20384;-59
2023/02/02 08:49:09;0.00;0.00;0.62;0.00;0.00;0.62;8.80;2.20;;;18.10;26.00;;;;;;2259682;61;20388;-61
2023/02/02 08:51:54;0.00;0.00;0.62;0.00;0.00;0.62;3.60;1.40;;;18.10;26.00;;;;;;2259820;61;20411;-63
2023/02/02 08:54:39;0.00;0.00;0.62;0.00;0.00;0.62;3.77;1.27;;;18.10;25.90;;;;;;2259549;61;20571;-59
2023/02/02 08:57:26;0.00;0.00;0.62;0.00;0.00;0.62;5.30;1.70;;;18.10;25.80;;;;;;2259729;61;20365;-58
2023/02/02 09:00:13;0.00;0.00;0.62;0.00;0.00;0.62;3.67;1.20;;;18.20;25.90;;;;;;2259730;61;20633;-63
2023/02/02 09:02:57;0.00;0.00;0.62;0.00;0.00;0.62;2.90;1.23;;;18.20;25.90;;;;;;2259661;61;20361;-60
2023/02/02 09:05:43;0.00;0.00;0.62;0.00;0.00;0.62;4.00;1.37;;;18.30;25.90;;;;;;2259583;61;20441;-62
2023/02/02 09:08:27;0.00;0.00;0.62;0.00;0.00;0.62;2.80;1.30;;;18.30;25.90;;;;;;2259667;61;20353;-59
2023/02/02 09:11:15;0.00;0.00;0.62;0.00;0.00;0.62;2.77;1.20;;;18.40;25.80;;;;;;2259651;61;20384;-58
2023/02/02 09:14:02;0.00;0.00;0.62;0.00;0.00;0.62;2.40;1.10;;;18.40;25.90;;;;;;2259404;61;20731;-57
2023/02/02 09:16:47;0.00;0.00;0.62;0.00;0.00;0.62;1.77;1.03;;;18.40;25.90;;;;;;2259245;61;20827;-63
2023/02/02 09:19:31;0.00;0.00;0.62;0.00;0.00;0.62;2.70;1.47;;;18.50;25.90;;;;;;2259864;61;20435;-62
2023/02/02 09:22:16;0.00;0.00;0.62;0.00;0.00;0.62;4.20;1.90;;;18.50;26.30;;;;;;2259309;61;20766;-62
2023/02/02 09:25:01;0.00;0.00;0.62;0.00;0.00;0.62;2.60;1.40;;;18.60;25.70;;;;;;2259674;61;20897;-60
2023/02/02 09:27:46;0.00;0.00;0.62;0.00;0.00;0.62;4.33;1.90;;;18.60;25.60;;;;;;2259376;61;20391;-63
2023/02/02 09:30:31;0.00;0.00;0.62;0.00;0.00;0.62;2.80;1.07;;;18.70;25.70;;;;;;2259928;61;20420;-61
2023/02/02 09:33:16;0.00;0.00;0.62;0.00;0.00;0.62;2.20;1.10;;;18.70;25.70;;;;;;2253413;61;20768;-62
2023/02/02 09:36:07;0.00;0.00;0.62;0.00;0.00;0.62;2.37;1.20;;;18.70;25.70;;;;;;2256355;61;20372;-63
2023/02/02 09:38:52;0.00;0.00;0.62;0.00;0.00;0.62;2.97;1.30;;;18.80;25.80;;;;;;2259424;61;20365;-62
2023/02/02 09:42:30;0.00;0.00;0.62;0.00;0.00;0.62;1.80;0.83;;;18.90;25.80;;;;;;2258084;61;20381;-61
2023/02/02 09:45:24;0.00;0.00;0.62;0.00;0.00;0.62;2.60;1.60;;;18.90;25.80;;;;;;2259929;61;20943;-64
2023/02/02 09:48:23;0.00;0.00;0.62;0.00;0.00;0.62;2.43;1.13;;;18.90;25.90;;;;;;2260046;61;20503;-64
2023/02/02 09:51:14;0.00;0.00;0.62;0.00;0.00;0.62;2.80;1.27;;;19.00;25.90;;;;;;2259370;61;20420;-62
2023/02/02 09:54:04;0.00;0.00;0.62;0.00;0.00;0.62;2.67;1.40;;;19.00;25.90;;;;;;2262919;61;20377;-63
2023/02/02 09:56:56;0.00;0.00;0.62;0.00;0.00;0.62;3.23;1.63;;;19.10;26.00;;;;;;2263306;61;20404;-64
2023/02/02 09:59:41;0.00;0.00;0.62;0.00;0.00;0.62;2.60;1.60;;;19.10;26.00;;;;;;2263813;61;20440;-62
2023/02/02 10:02:37;0.00;0.00;0.62;0.00;0.00;0.62;2.27;1.40;;;19.10;26.00;;;;;;2263541;61;20364;-63
2023/02/02 10:05:29;0.00;0.00;0.62;0.00;0.00;0.62;2.43;1.10;;;19.20;26.00;;;;;;2265014;61;20364;-64
2023/02/02 10:08:23;0.00;0.00;0.62;0.00;0.00;0.62;3.27;1.57;;;19.20;26.00;;;;;;2264644;61;20737;-64
2023/02/02 10:11:29;0.00;0.00;0.62;0.00;0.00;0.62;3.00;1.50;;;19.30;26.10;;;;;;2264708;61;20503;-65
2023/02/02 10:14:21;0.00;0.00;0.62;0.00;0.00;0.62;2.47;1.30;;;19.30;26.10;;;;;;2263811;61;20356;-64
2023/02/02 10:17:32;0.00;0.00;0.62;0.00;0.00;0.62;2.37;1.20;;;19.40;26.20;;;;;;2263521;61;20506;-65
2023/02/02 10:20:37;0.00;0.00;0.62;0.00;0.00;0.62;4.20;2.00;;;19.40;26.20;;;;;;2263877;61;20455;-63
2023/02/02 10:23:27;0.00;0.00;0.62;0.00;0.00;0.62;2.20;1.10;;;19.50;26.30;;;;;;2264264;61;20364;-65
2023/02/02 10:26:18;0.00;0.00;0.62;0.00;0.00;0.62;2.27;1.43;;;19.50;26.30;;;;;;2265136;61;20899;-64
2023/02/02 10:29:13;0.00;0.00;0.62;0.00;0.00;0.62;3.47;1.60;;;19.60;26.40;;;;;;2265075;61;20452;-68
2023/02/02 10:32:13;0.00;0.00;0.62;0.00;0.00;0.62;3.13;1.47;;;19.60;26.30;;;;;;2263754;61;20360;-64
2023/02/02 10:35:16;0.00;0.00;0.62;0.00;0.00;0.62;2.53;1.30;;;19.60;26.20;;;;;;2263808;61;20379;-61
2023/02/02 10:38:11;0.00;0.00;0.62;0.00;0.00;0.62;3.80;1.37;;;19.60;26.20;;;;;;2263849;61;20934;-67
2023/02/02 10:41:05;0.00;0.00;0.62;0.00;0.00;0.62;1.93;1.20;;;19.70;26.20;;;;;;2266808;61;20395;-65
2023/02/02 10:44:08;0.00;0.00;0.62;0.00;0.00;0.62;2.50;1.50;;;19.70;26.30;;;;;;2263631;61;20372;-64
2023/02/02 10:46:57;0.00;0.00;0.62;0.00;0.00;0.62;2.87;1.40;;;19.80;26.20;;;;;;2265095;61;20399;-63
2023/02/02 10:49:42;0.00;0.00;0.62;0.00;0.00;0.62;2.17;1.20;;;19.80;26.10;;;;;;2266017;61;20376;-61
2023/02/02 10:52:32;0.00;0.00;0.62;0.00;0.00;0.62;1.90;1.10;;;19.90;26.10;;;;;;2265754;61;20776;-60
2023/02/02 10:55:29;0.00;0.00;0.62;0.00;0.00;0.62;2.43;1.10;;;19.90;26.10;;;;;;2265145;61;20818;-62
2023/02/02 10:58:23;0.00;0.00;0.62;0.00;0.00;0.62;2.40;1.33;;;20.00;26.10;;;;;;2261277;61;20919;-65
2023/02/02 11:01:10;0.00;0.00;0.62;0.00;0.00;0.62;1.60;1.10;;;20.00;26.20;;;;;;2264818;61;20438;-61
2023/02/02 11:03:42;0.00;0.00;0.62;0.00;0.00;0.62;2.43;1.20;;;20.00;26.10;;;;;;2266082;61;20369;-64
2023/02/02 11:09:35;0.00;0.00;0.62;0.00;0.00;0.62;4.00;2.80;;;20.10;26.10;;;;;;2266374;61;20403;-61
2023/02/02 11:12:30;0.00;0.00;0.62;0.00;0.00;0.62;3.97;2.63;;;20.10;26.00;;;;;;2266871;61;20409;-63
2023/02/02 11:15:25;0.00;0.00;0.62;0.00;0.00;0.62;4.13;2.50;;;20.20;26.00;;;;;;2265985;61;20364;-67